createdAt,value
2022-07-26T00:01:42.476Z,53.73
2022-07-26T00:04:49.427Z,53.64
2022-07-26T00:08:16.273Z,53.53
2022-07-26T00:11:25.882Z,54.36
2022-07-26T00:14:31.632Z,54.13
2022-07-26T00:17:37.513Z,54.15
2022-07-26T00:20:44.258Z,54.35
2022-07-26T00:23:50.125Z,54.32
2022-07-26T00:26:58.831Z,54.47
2022-07-26T00:30:04.445Z,54.14
2022-07-26T00:33:10.374Z,54.61
2022-07-26T00:36:16.361Z,54.23
2022-07-26T00:39:21.945Z,54.12
2022-07-26T00:42:30.070Z,53.65
2022-07-26T00:45:35.771Z,54.25
2022-07-26T00:48:41.475Z,53.38
2022-07-26T00:51:47.180Z,53.36
2022-07-26T00:54:54.871Z,53.96
2022-07-26T00:58:11.016Z,53.64
2022-07-26T01:01:17.838Z,54.07
2022-07-26T01:04:23.438Z,54.01
2022-07-26T01:07:29.179Z,54.13
2022-07-26T01:10:34.914Z,54.60
2022-07-26T01:13:50.134Z,54.62
2022-07-26T01:16:56.827Z,54.81
2022-07-26T01:20:02.483Z,55.17
2022-07-26T01:23:11.738Z,55.13
2022-07-26T01:26:17.405Z,55.57
2022-07-26T01:29:34.764Z,55.99
2022-07-26T01:32:42.055Z,56.19
2022-07-26T01:35:48.316Z,56.61
2022-07-26T01:38:58.832Z,56.76
2022-07-26T01:42:04.543Z,56.49
2022-07-26T01:45:11.866Z,57.10
2022-07-26T01:48:17.478Z,57.41
2022-07-26T01:51:23.114Z,58.29
2022-07-26T01:54:32.466Z,58.30
2022-07-26T01:57:38.396Z,58.40
2022-07-26T02:00:44.131Z,59.16
2022-07-26T02:03:49.679Z,59.51
2022-07-26T02:06:56.360Z,59.67
2022-07-26T02:10:04.494Z,59.96
2022-07-26T02:13:10.157Z,59.47
2022-07-26T02:16:18.810Z,60.40
2022-07-26T02:19:24.664Z,60.75
2022-07-26T02:22:30.250Z,61.32
2022-07-26T02:25:38.408Z,61.28
2022-07-26T02:28:43.915Z,61.20
2022-07-26T02:31:49.565Z,60.99
2022-07-26T02:34:55.123Z,61.27
2022-07-26T02:38:06.181Z,61.79
2022-07-26T02:41:14.396Z,61.90
2022-07-26T02:44:20.033Z,61.97
2022-07-26T02:47:25.628Z,61.80
2022-07-26T02:50:33.037Z,62.64
2022-07-26T02:53:38.555Z,62.49
2022-07-26T02:56:47.243Z,62.55
2022-07-26T03:00:00.326Z,62.45
2022-07-26T03:03:08.166Z,62.80
2022-07-26T03:06:13.813Z,63.08
2022-07-26T03:09:26.224Z,62.59
2022-07-26T03:12:39.557Z,62.82
2022-07-26T03:15:45.254Z,63.16
2022-07-26T03:18:50.958Z,63.35
2022-07-26T03:21:56.486Z,64.14
2022-07-26T03:25:02.486Z,63.90
2022-07-26T03:28:12.796Z,63.95
2022-07-26T03:31:24.097Z,64.21
2022-07-26T03:34:30.665Z,64.07
2022-07-26T03:37:45.009Z,64.51
2022-07-26T03:40:52.753Z,64.12
2022-07-26T03:44:00.957Z,64.54
2022-07-26T03:47:06.722Z,64.42
2022-07-26T03:50:14.369Z,63.98
2022-07-26T03:53:20.220Z,63.98
2022-07-26T03:56:33.711Z,63.72
2022-07-26T03:59:44.900Z,63.33
2022-07-26T04:02:50.636Z,62.64
2022-07-26T04:05:56.620Z,62.47
2022-07-26T04:09:15.579Z,62.37
2022-07-26T04:12:21.193Z,61.58
2022-07-26T04:15:29.531Z,61.13
2022-07-26T04:18:35.457Z,60.58
2022-07-26T04:21:41.081Z,61.14
2022-07-26T04:24:47.763Z,61.00
2022-07-26T04:27:54.604Z,61.23
2022-07-26T04:31:16.167Z,61.00
2022-07-26T04:34:26.802Z,61.63
2022-07-26T04:37:33.252Z,61.30
2022-07-26T04:40:41.036Z,61.34
2022-07-26T04:43:46.962Z,60.98
2022-07-26T04:46:55.141Z,59.78
2022-07-26T04:50:00.756Z,58.15
2022-07-26T04:53:08.596Z,56.29
2022-07-26T04:56:14.688Z,54.62
2022-07-26T04:59:22.030Z,52.97
2022-07-26T05:02:31.162Z,50.89
2022-07-26T05:05:37.512Z,50.03
2022-07-26T05:08:43.646Z,49.39
2022-07-26T05:11:50.169Z,48.36
2022-07-26T05:14:55.749Z,48.54
2022-07-26T05:18:13.617Z,47.43
2022-07-26T05:21:23.032Z,47.20
2022-07-26T05:24:43.530Z,45.90
2022-07-26T05:27:49.615Z,45.25
2022-07-26T05:30:55.647Z,45.04
2022-07-26T05:34:04.874Z,44.86
2022-07-26T05:37:13.682Z,44.55
2022-07-26T05:40:22.462Z,44.18
2022-07-26T05:43:41.721Z,44.73
2022-07-26T05:46:48.051Z,44.75
2022-07-26T05:49:58.518Z,44.83
2022-07-26T05:53:04.778Z,44.85
2022-07-26T05:56:11.905Z,44.61
2022-07-26T05:59:18.041Z,43.95
2022-07-26T06:02:29.740Z,44.98
2022-07-26T06:05:38.362Z,45.53
2022-07-26T06:08:44.623Z,46.66
2022-07-26T06:11:50.848Z,46.50
2022-07-26T06:14:57.268Z,46.76
2022-07-26T06:18:19.212Z,48.01
2022-07-26T06:21:27.834Z,49.62
2022-07-26T06:24:33.894Z,49.62
2022-07-26T06:27:39.957Z,50.78
2022-07-26T06:30:49.337Z,51.11
2022-07-26T06:33:55.261Z,51.73
2022-07-26T06:37:04.194Z,52.54
2022-07-26T06:40:15.574Z,53.43
2022-07-26T06:43:23.836Z,53.59
2022-07-26T06:46:30.110Z,55.92
2022-07-26T06:49:36.281Z,57.03
2022-07-26T06:52:47.835Z,56.50
2022-07-26T06:55:55.012Z,56.88
2022-07-26T06:59:03.072Z,57.12
2022-07-26T07:02:11.843Z,56.18
2022-07-26T07:05:19.801Z,56.84
2022-07-26T07:08:30.639Z,58.19
2022-07-26T07:11:37.930Z,60.09
2022-07-26T07:14:45.061Z,62.21
2022-07-26T07:17:58.457Z,63.24
2022-07-26T07:21:08.555Z,63.34
2022-07-26T07:24:18.259Z,64.01
2022-07-26T07:27:24.165Z,64.98
2022-07-26T07:30:33.355Z,65.94
2022-07-26T07:33:53.481Z,66.04
2022-07-26T07:37:00.860Z,66.69
2022-07-26T07:40:17.710Z,67.26
2022-07-26T07:43:26.841Z,68.06
2022-07-26T07:46:33.091Z,67.85
2022-07-26T07:49:40.003Z,69.00
2022-07-26T07:52:47.085Z,69.11
2022-07-26T07:55:56.621Z,69.33
2022-07-26T07:59:08.112Z,70.92
2022-07-26T08:02:27.758Z,72.73
2022-07-26T08:05:33.914Z,72.87
2022-07-26T08:08:41.361Z,72.08
2022-07-26T08:11:53.715Z,72.21
2022-07-26T08:15:07.509Z,72.20
2022-07-26T08:18:22.247Z,73.31
2022-07-26T08:21:29.673Z,72.29
2022-07-26T08:24:35.949Z,72.14
2022-07-26T08:27:51.098Z,71.64
2022-07-26T08:31:14.948Z,70.60
2022-07-26T08:34:22.197Z,70.35
2022-07-26T08:37:38.295Z,70.13
2022-07-26T08:40:44.733Z,69.60
2022-07-26T08:43:53.941Z,69.15
2022-07-26T08:46:59.977Z,68.67
2022-07-26T08:50:06.310Z,69.62
2022-07-26T08:53:17.321Z,69.40
2022-07-26T08:56:23.436Z,68.57
2022-07-26T08:59:33.460Z,68.27
2022-07-26T09:02:44.174Z,67.54
2022-07-26T09:05:56.894Z,67.37
2022-07-26T09:09:15.204Z,66.53
2022-07-26T09:12:23.766Z,65.87
2022-07-26T09:15:32.280Z,65.24
2022-07-26T09:18:38.817Z,64.83
2022-07-26T09:21:45.082Z,64.46
2022-07-26T09:24:51.755Z,64.34
2022-07-26T09:28:06.526Z,63.51
2022-07-26T09:31:32.121Z,64.58
2022-07-26T09:34:44.412Z,64.61
2022-07-26T09:37:58.302Z,64.78
2022-07-26T09:41:10.461Z,65.10
2022-07-26T09:44:28.763Z,65.59
2022-07-26T09:47:44.047Z,66.49
2022-07-26T09:50:52.050Z,66.55
2022-07-26T09:53:58.267Z,67.17
2022-07-26T09:57:05.403Z,67.04
2022-07-26T10:00:13.947Z,67.54
2022-07-26T10:03:34.247Z,67.53
2022-07-26T10:06:40.979Z,67.55
2022-07-26T10:10:00.637Z,67.51
2022-07-26T10:13:26.986Z,68.12
2022-07-26T10:16:34.697Z,67.90
2022-07-26T10:19:47.395Z,68.48
2022-07-26T10:23:00.481Z,68.31
2022-07-26T10:26:45.874Z,68.87
2022-07-26T10:30:27.777Z,69.41
2022-07-26T10:33:50.114Z,70.30
2022-07-26T10:37:08.785Z,70.05
2022-07-26T10:40:25.838Z,69.69
2022-07-26T10:43:42.630Z,69.82
2022-07-26T10:47:15.073Z,70.47
2022-07-26T10:50:41.800Z,71.04
2022-07-26T10:54:03.883Z,70.70
2022-07-26T10:57:12.705Z,70.95
2022-07-26T11:00:30.962Z,71.09
2022-07-26T11:03:41.941Z,71.67
2022-07-26T11:06:48.731Z,73.30
2022-07-26T11:09:59.494Z,74.18
2022-07-26T11:13:19.139Z,75.04
2022-07-26T11:16:26.134Z,75.55
2022-07-26T11:19:32.077Z,74.49
2022-07-26T11:22:40.955Z,73.72
2022-07-26T11:26:13.282Z,74.12
2022-07-26T11:29:37.945Z,73.26
2022-07-26T11:32:58.993Z,73.34
2022-07-26T11:36:05.230Z,73.37
2022-07-26T11:39:16.070Z,72.84
2022-07-26T11:42:24.831Z,72.68
2022-07-26T11:45:31.644Z,72.70
2022-07-26T11:48:50.222Z,71.87
2022-07-26T11:52:00.418Z,72.85
2022-07-26T11:55:07.301Z,72.37
2022-07-26T11:58:16.283Z,72.46
2022-07-26T12:01:29.515Z,72.14
2022-07-26T12:04:44.700Z,72.09
2022-07-26T12:08:00.905Z,71.68
2022-07-26T12:11:39.990Z,72.60
2022-07-26T12:15:14.615Z,71.26
2022-07-26T12:18:37.225Z,70.82
2022-07-26T12:21:52.608Z,70.93
2022-07-26T12:25:03.793Z,69.60
2022-07-26T12:28:23.460Z,69.65
2022-07-26T12:31:37.154Z,68.78
2022-07-26T12:34:58.018Z,69.26
2022-07-26T12:38:11.209Z,68.95
2022-07-26T12:41:36.049Z,68.10
2022-07-26T12:44:42.124Z,68.84
2022-07-26T12:47:53.875Z,67.76
2022-07-26T12:51:05.261Z,67.08
2022-07-26T12:54:12.120Z,66.37
2022-07-26T12:57:19.221Z,67.13
2022-07-26T13:00:25.187Z,66.01
2022-07-26T13:03:34.132Z,65.99
2022-07-26T13:06:40.151Z,65.17
2022-07-26T13:09:46.759Z,65.83
2022-07-26T13:12:52.923Z,65.37
2022-07-26T13:15:58.833Z,66.19
2022-07-26T13:19:14.164Z,65.95
2022-07-26T13:22:20.033Z,65.40
2022-07-26T13:25:32.299Z,65.33
2022-07-26T13:28:49.924Z,65.13
2022-07-26T13:31:59.728Z,64.99
2022-07-26T13:35:22.114Z,63.85
2022-07-26T13:38:28.849Z,64.45
2022-07-26T13:41:37.037Z,62.75
2022-07-26T13:44:43.735Z,63.48
2022-07-26T13:47:49.494Z,62.35
2022-07-26T13:50:58.579Z,61.29
2022-07-26T13:54:08.830Z,61.05
2022-07-26T13:57:15.097Z,60.34
2022-07-26T14:00:21.234Z,60.68
2022-07-26T14:03:29.722Z,61.06
2022-07-26T14:06:40.754Z,60.42
2022-07-26T14:09:51.520Z,61.56
2022-07-26T14:12:57.325Z,60.42
2022-07-26T14:16:09.768Z,60.09
2022-07-26T14:19:15.339Z,60.88
2022-07-26T14:22:23.862Z,59.02
2022-07-26T14:25:33.200Z,60.21
2022-07-26T14:28:41.277Z,61.69
2022-07-26T14:31:47.304Z,62.17
2022-07-26T14:34:57.031Z,61.35
2022-07-26T14:38:05.299Z,60.57
2022-07-26T14:41:11.751Z,61.06
2022-07-26T14:44:17.306Z,61.45
2022-07-26T14:47:22.767Z,61.14
2022-07-26T14:50:35.013Z,61.36
2022-07-26T14:54:03.251Z,61.82
2022-07-26T14:57:09.164Z,62.94
2022-07-26T15:00:19.268Z,63.95
2022-07-26T15:03:24.942Z,62.61
2022-07-26T15:06:30.641Z,64.27
2022-07-26T15:09:38.796Z,64.06
2022-07-26T15:12:45.702Z,62.35
2022-07-26T15:15:51.224Z,63.55
2022-07-26T15:18:57.619Z,64.02
2022-07-26T15:22:03.178Z,64.17
2022-07-26T15:25:12.279Z,64.13
2022-07-26T15:28:20.590Z,63.82
2022-07-26T15:31:37.074Z,62.65
2022-07-26T15:34:43.517Z,63.13
2022-07-26T15:37:49.197Z,63.51
2022-07-26T15:40:59.547Z,64.94
2022-07-26T15:44:25.547Z,66.63
2022-07-26T15:47:52.816Z,66.28
2022-07-26T15:50:59.249Z,67.06
2022-07-26T15:54:14.728Z,66.56
2022-07-26T15:57:32.328Z,67.38
2022-07-26T16:00:57.731Z,66.39
2022-07-26T16:04:12.520Z,65.44
2022-07-26T16:07:18.281Z,64.30
2022-07-26T16:10:47.639Z,63.64
2022-07-26T16:14:21.219Z,63.09
2022-07-26T16:17:35.971Z,63.76
2022-07-26T16:20:48.323Z,64.58
2022-07-26T16:23:54.174Z,65.30
2022-07-26T16:26:59.805Z,65.08
2022-07-26T16:30:22.680Z,65.39
2022-07-26T16:33:34.448Z,67.22
2022-07-26T16:36:40.543Z,66.59
2022-07-26T16:39:46.125Z,66.80
2022-07-26T16:42:51.603Z,67.21
2022-07-26T16:45:59.808Z,68.68
2022-07-26T16:49:09.286Z,68.46
2022-07-26T16:52:15.749Z,70.53
2022-07-26T16:55:26.932Z,70.97
2022-07-26T16:58:36.791Z,71.17
2022-07-26T17:01:53.352Z,71.30
2022-07-26T17:04:59.856Z,71.35
2022-07-26T17:08:09.162Z,70.68
2022-07-26T17:11:14.911Z,70.92
2022-07-26T17:14:20.736Z,71.99
2022-07-26T17:17:38.994Z,72.80
2022-07-26T17:20:45.786Z,72.51
2022-07-26T17:23:51.689Z,72.38
2022-07-26T17:26:57.490Z,71.96
2022-07-26T17:30:06.549Z,72.37
2022-07-26T17:33:16.000Z,71.59
2022-07-26T17:36:27.920Z,72.11
2022-07-26T17:39:52.640Z,71.32
2022-07-26T17:42:59.254Z,71.85
2022-07-26T17:46:04.878Z,73.19
2022-07-26T17:49:19.603Z,73.43
2022-07-26T17:52:27.011Z,72.88
2022-07-26T17:55:32.569Z,72.69
2022-07-26T17:58:38.117Z,73.79
2022-07-26T18:01:53.504Z,73.34
2022-07-26T18:05:02.800Z,73.73
2022-07-26T18:08:09.617Z,72.59
2022-07-26T18:11:15.212Z,73.04
2022-07-26T18:14:21.337Z,73.39
2022-07-26T18:17:30.827Z,73.35
2022-07-26T18:20:51.440Z,73.56
2022-07-26T18:24:16.367Z,73.80
2022-07-26T18:27:23.635Z,74.12
2022-07-26T18:30:30.052Z,73.86
2022-07-26T18:33:49.574Z,74.67
2022-07-26T18:37:00.808Z,74.94
2022-07-26T18:40:12.206Z,74.92
2022-07-26T18:43:17.689Z,74.79
2022-07-26T18:46:26.425Z,75.15
2022-07-26T18:49:33.959Z,74.94
2022-07-26T18:52:45.609Z,75.83
2022-07-26T18:55:51.726Z,76.36
2022-07-26T18:58:57.290Z,76.75
2022-07-26T19:02:21.733Z,76.72
2022-07-26T19:05:36.499Z,77.47
2022-07-26T19:08:47.349Z,77.24
2022-07-26T19:11:53.368Z,78.08
2022-07-26T19:15:00.109Z,77.99
2022-07-26T19:18:16.249Z,77.78
2022-07-26T19:21:22.283Z,78.11
2022-07-26T19:24:32.493Z,77.88
2022-07-26T19:27:38.404Z,77.41
2022-07-26T19:30:45.193Z,77.62
2022-07-26T19:33:51.849Z,78.30
2022-07-26T19:37:02.410Z,78.48
2022-07-26T19:40:12.709Z,78.03
2022-07-26T19:43:18.381Z,76.87
2022-07-26T19:46:24.970Z,76.40
2022-07-26T19:49:30.871Z,76.01
2022-07-26T19:52:42.473Z,75.87
2022-07-26T19:55:50.671Z,75.78
2022-07-26T19:59:01.244Z,75.02
2022-07-26T20:02:22.877Z,75.10
2022-07-26T20:05:28.691Z,74.35
2022-07-26T20:08:40.398Z,74.09
2022-07-26T20:11:51.229Z,73.51
2022-07-26T20:14:56.897Z,74.26
2022-07-26T20:18:02.452Z,74.39
2022-07-26T20:21:08.071Z,74.76
2022-07-26T20:24:15.442Z,74.34
2022-07-26T20:27:23.885Z,74.24
2022-07-26T20:30:29.541Z,74.52
2022-07-26T20:33:40.746Z,73.73
2022-07-26T20:36:46.345Z,73.22
2022-07-26T20:39:58.285Z,73.13
2022-07-26T20:43:07.380Z,72.47
2022-07-26T20:46:13.121Z,72.07
2022-07-26T20:49:25.905Z,71.39
2022-07-26T20:52:31.689Z,70.81
2022-07-26T20:55:37.291Z,70.83
2022-07-26T20:58:45.495Z,70.31
2022-07-26T21:01:58.421Z,70.39
2022-07-26T21:05:17.565Z,69.59
2022-07-26T21:08:23.710Z,68.95
2022-07-26T21:11:29.272Z,68.99
2022-07-26T21:14:37.512Z,68.53
2022-07-26T21:17:54.341Z,68.73
2022-07-26T21:21:00.458Z,68.64
2022-07-26T21:24:22.870Z,68.74
2022-07-26T21:27:28.549Z,68.33
2022-07-26T21:30:36.793Z,69.11
2022-07-26T21:33:44.392Z,68.55
2022-07-26T21:36:57.552Z,68.92
2022-07-26T21:40:08.558Z,69.06
2022-07-26T21:43:14.422Z,69.18
2022-07-26T21:46:22.609Z,69.35
2022-07-26T21:49:28.273Z,69.84
2022-07-26T21:52:39.641Z,70.00
2022-07-26T21:55:45.267Z,69.80
2022-07-26T21:58:51.415Z,69.21
2022-07-26T22:02:01.122Z,69.42
2022-07-26T22:05:34.043Z,69.43
2022-07-26T22:08:41.044Z,69.66
2022-07-26T22:11:56.599Z,69.04
2022-07-26T22:15:02.185Z,68.85
2022-07-26T22:18:11.159Z,68.66
2022-07-26T22:21:16.969Z,68.32
2022-07-26T22:24:22.766Z,68.19
2022-07-26T22:27:28.636Z,68.79
2022-07-26T22:30:34.982Z,69.79
2022-07-26T22:33:43.233Z,69.54
2022-07-26T22:36:48.774Z,70.03
2022-07-26T22:39:54.314Z,69.99
2022-07-26T22:43:01.602Z,70.15
2022-07-26T22:46:07.801Z,70.05
2022-07-26T22:49:16.302Z,70.02
2022-07-26T22:52:22.013Z,69.63
2022-07-26T22:55:29.137Z,69.60
2022-07-26T22:58:34.714Z,69.71
2022-07-26T23:01:40.342Z,70.49
2022-07-26T23:04:50.580Z,70.74
2022-07-26T23:07:59.185Z,70.79
2022-07-26T23:11:15.454Z,71.19
2022-07-26T23:14:21.144Z,71.35
2022-07-26T23:17:27.535Z,71.39
2022-07-26T23:20:37.219Z,71.78
2022-07-26T23:23:42.803Z,71.79
2022-07-26T23:26:48.340Z,72.34
2022-07-26T23:29:53.908Z,72.86
2022-07-26T23:32:59.496Z,73.23
2022-07-26T23:36:08.509Z,73.42
2022-07-26T23:39:15.058Z,73.37
2022-07-26T23:42:20.718Z,73.97
2022-07-26T23:45:26.692Z,74.53
2022-07-26T23:48:33.626Z,74.77
2022-07-26T23:51:41.819Z,75.10
2022-07-26T23:54:47.417Z,74.39
2022-07-26T23:57:52.948Z,74.84
